Time;durP1;ratioP1;P1;durP2;ratioP2;P2;SDS_P1;SDS_P2;PMS_P1;PMS_P2;Temp;Humidity;BMP_temperature;BMP_pressure;BME280_temperature;BME280_humidity;BME280_pressure;Samples;Min_cycle;Max_cycle;Signal;HPM_P1;HPM_P2
2021/09/20 00:00:41;;;;;;;45.30;42.42;;;;;;;11.59;100.00;100721.78;5030531;28;20057;-79
2021/09/20 00:03:07;;;;;;;39.78;37.08;;;;;;;11.94;100.00;100715.25;5025344;28;20057;-78
2021/09/20 00:05:34;;;;;;;40.50;37.92;;;;;;;11.92;100.00;100715.47;5028726;28;20049;-78
2021/09/20 00:08:02;;;;;;;38.72;36.30;;;;;;;12.04;100.00;100720.91;5023290;28;20046;-79
2021/09/20 00:10:29;;;;;;;41.72;39.05;;;;;;;12.10;100.00;100715.56;5021575;28;20057;-80
2021/09/20 00:12:56;;;;;;;34.40;32.10;;;;;;;11.84;100.00;100718.38;5019364;28;20115;-82
2021/09/20 00:15:23;;;;;;;36.22;33.97;;;;;;;12.06;100.00;100716.19;5025456;28;20053;-79
2021/09/20 00:17:50;;;;;;;38.20;35.80;;;;;;;12.09;100.00;100721.09;5025572;28;20406;-83
2021/09/20 00:20:17;;;;;;;36.90;34.53;;;;;;;11.94;100.00;100726.72;5021565;28;20435;-82
2021/09/20 00:22:44;;;;;;;44.90;42.13;;;;;;;11.57;100.00;100718.50;5027915;28;20524;-78
2021/09/20 00:25:15;;;;;;;40.10;37.20;;;;;;;11.53;100.00;100716.47;5021142;28;20116;-78
2021/09/20 00:27:42;;;;;;;35.25;32.85;;;;;;;11.78;100.00;100714.72;5021701;28;20054;-79
2021/09/20 00:30:10;;;;;;;36.00;33.60;;;;;;;12.00;100.00;100703.75;5023474;28;20061;-78
2021/09/20 00:32:37;;;;;;;40.08;37.47;;;;;;;12.17;100.00;100694.22;5022648;28;20053;-79
2021/09/20 00:35:05;;;;;;;44.88;42.38;;;;;;;12.21;100.00;100686.59;5027703;28;20057;-78
2021/09/20 00:37:31;;;;;;;34.33;32.03;;;;;;;12.24;100.00;100688.84;5018427;28;20054;-79
2021/09/20 00:39:58;;;;;;;33.75;30.95;;;;;;;12.33;100.00;100685.69;5024507;28;20123;-80
2021/09/20 00:42:26;;;;;;;33.95;31.27;;;;;;;12.52;100.00;100683.03;5030085;28;20049;-79
2021/09/20 00:44:53;;;;;;;33.10;30.65;;;;;;;12.40;100.00;100682.94;5025029;28;20401;-80
2021/09/20 00:47:20;;;;;;;34.03;31.67;;;;;;;12.49;100.00;100684.28;5021905;28;20114;-78
2021/09/20 00:49:47;;;;;;;38.38;35.78;;;;;;;12.51;100.00;100679.56;5020252;28;20046;-79
2021/09/20 00:52:13;;;;;;;33.03;30.83;;;;;;;12.74;100.00;100678.94;5024672;28;20069;-78
2021/09/20 00:54:40;;;;;;;47.25;44.75;;;;;;;12.10;100.00;100685.44;5021751;28;20054;-79
2021/09/20 00:57:07;;;;;;;36.28;33.83;;;;;;;12.46;100.00;100682.06;5022641;28;20050;-79
2021/09/20 00:59:36;;;;;;;34.72;32.33;;;;;;;12.19;100.00;100686.00;5026101;28;20119;-79
2021/09/20 01:02:03;;;;;;;35.42;33.17;;;;;;;12.35;100.00;100683.63;5026841;28;20103;-80
2021/09/20 01:04:30;;;;;;;40.40;38.10;;;;;;;12.35;100.00;100670.31;5031272;28;20041;-82
2021/09/20 01:06:57;;;;;;;37.97;35.55;;;;;;;12.28;100.00;100679.38;5030383;28;20045;-78
2021/09/20 01:09:25;;;;;;;39.45;37.15;;;;;;;11.41;100.00;100687.09;5026332;28;20115;-79
2021/09/20 01:11:53;;;;;;;36.13;33.83;;;;;;;11.17;100.00;100697.41;5033791;28;20049;-79
2021/09/20 01:14:20;;;;;;;37.83;35.00;;;;;;;11.88;100.00;100709.75;5025136;28;20128;-78
2021/09/20 01:16:48;;;;;;;36.38;34.08;;;;;;;12.06;100.00;100687.72;5026564;28;20220;-78
2021/09/20 01:19:15;;;;;;;38.10;35.88;;;;;;;12.03;100.00;100693.50;5028122;28;20376;-80
2021/09/20 01:21:41;;;;;;;44.50;42.08;;;;;;;12.01;100.00;100692.06;5030480;28;20057;-79
2021/09/20 01:24:10;;;;;;;36.53;34.33;;;;;;;11.81;100.00;100695.66;5024432;28;20536;-78
2021/09/20 01:26:37;;;;;;;32.10;29.45;;;;;;;11.77;100.00;100704.28;5025338;28;20124;-79
2021/09/20 01:29:06;;;;;;;42.05;39.60;;;;;;;11.31;100.00;100703.47;5026782;28;20054;-79
2021/09/20 01:31:33;;;;;;;36.47;34.00;;;;;;;11.74;100.00;100697.56;5026412;28;20554;-78
2021/09/20 01:33:59;;;;;;;38.95;36.33;;;;;;;11.52;100.00;100701.53;5018868;28;20049;-79
2021/09/20 01:36:26;;;;;;;39.47;36.72;;;;;;;11.95;100.00;100704.38;5023107;28;20049;-79
2021/09/20 01:38:53;;;;;;;43.40;40.38;;;;;;;11.87;100.00;100704.66;5025585;28;20062;-78
2021/09/20 01:41:21;;;;;;;38.97;36.38;;;;;;;11.82;100.00;100699.13;5034766;28;20147;-80
2021/09/20 01:43:48;;;;;;;40.08;37.38;;;;;;;11.86;100.00;100687.03;5025455;28;20049;-79
2021/09/20 01:46:15;;;;;;;43.13;40.53;;;;;;;11.81;100.00;100689.53;5028850;28;20088;-78
2021/09/20 01:48:41;;;;;;;39.05;36.63;;;;;;;11.68;100.00;100704.53;5025250;28;20057;-79
2021/09/20 01:51:08;;;;;;;39.17;36.88;;;;;;;11.72;100.00;100702.25;5032391;28;20052;-79
2021/09/20 01:53:35;;;;;;;38.17;35.90;;;;;;;11.84;100.00;100700.56;5026398;28;20060;-79
2021/09/20 01:56:02;;;;;;;36.75;34.25;;;;;;;11.80;100.00;100702.03;5025958;28;20506;-79
2021/09/20 01:58:30;;;;;;;38.08;35.30;;;;;;;11.80;100.00;100699.34;5024655;28;20045;-81
2021/09/20 02:01:22;;;;;;;38.75;35.40;;;;;;;11.86;100.00;100693.22;5131646;23;20465;-83
2021/09/20 02:03:50;;;;;;;39.65;37.42;;;;;;;11.76;100.00;100689.34;4968606;28;20054;-79
2021/09/20 02:06:17;;;;;;;45.05;42.25;;;;;;;11.60;100.00;100688.00;4963683;28;20110;-79
2021/09/20 02:08:44;;;;;;;48.15;45.45;;;;;;;11.59;100.00;100697.84;4966157;28;20109;-78
2021/09/20 02:11:11;;;;;;;51.20;48.30;;;;;;;11.53;100.00;100687.22;4972382;28;20054;-78
2021/09/20 02:13:39;;;;;;;47.67;45.03;;;;;;;11.44;100.00;100686.66;4966914;28;20114;-79
2021/09/20 02:16:07;;;;;;;48.00;45.47;;;;;;;11.63;100.00;100683.06;4967990;28;20054;-79
2021/09/20 02:18:35;;;;;;;45.50;43.10;;;;;;;11.62;100.00;100688.63;4968824;28;20121;-79
2021/09/20 02:21:03;;;;;;;43.70;41.05;;;;;;;11.55;100.00;100685.97;4966229;28;20043;-78
2021/09/20 02:23:30;;;;;;;48.38;45.35;;;;;;;11.35;100.00;100686.09;4963579;28;20122;-77
2021/09/20 02:25:57;;;;;;;48.85;46.20;;;;;;;11.07;100.00;100688.22;4968571;28;20110;-78
2021/09/20 02:28:23;;;;;;;55.10;51.92;;;;;;;11.26;100.00;100689.22;4964704;28;20055;-77
2021/09/20 02:30:52;;;;;;;49.30;46.60;;;;;;;10.98;100.00;100700.94;4964469;28;20062;-77
2021/09/20 02:33:18;;;;;;;48.65;46.05;;;;;;;11.12;100.00;100707.84;4963220;28;20063;-77
2021/09/20 02:35:45;;;;;;;44.65;41.60;;;;;;;11.20;100.00;100704.97;4968008;28;20051;-78
2021/09/20 02:38:13;;;;;;;49.85;47.00;;;;;;;11.29;100.00;100699.41;4965181;28;20046;-77
2021/09/20 02:40:39;;;;;;;54.17;51.17;;;;;;;11.09;100.00;100700.28;4968821;28;20476;-78
2021/09/20 02:43:06;;;;;;;50.58;47.72;;;;;;;11.37;100.00;100702.63;4963983;28;20055;-77
2021/09/20 02:45:33;;;;;;;50.28;47.28;;;;;;;11.20;100.00;100698.84;4961482;28;20055;-78
2021/09/20 02:48:01;;;;;;;47.83;45.13;;;;;;;10.92;100.00;100699.09;4965331;28;20491;-78
2021/09/20 02:50:28;;;;;;;44.47;41.90;;;;;;;11.15;100.00;100696.78;4967968;28;20047;-78
2021/09/20 02:52:55;;;;;;;43.63;40.53;;;;;;;10.80;100.00;100693.59;4967832;28;20435;-77
2021/09/20 02:55:21;;;;;;;42.65;40.05;;;;;;;11.14;100.00;100697.00;4963744;28;20055;-78
2021/09/20 02:57:48;;;;;;;42.67;40.08;;;;;;;11.16;100.00;100694.94;4969433;28;20488;-76
2021/09/20 03:00:16;;;;;;;44.20;41.60;;;;;;;11.03;100.00;100703.78;4972276;28;20051;-78
2021/09/20 03:02:43;;;;;;;42.05;39.22;;;;;;;10.96;100.00;100703.00;4975903;28;20059;-78
2021/09/20 03:05:11;;;;;;;44.95;42.25;;;;;;;10.99;100.00;100700.72;4990588;28;20534;-78
2021/09/20 03:07:38;;;;;;;36.22;33.78;;;;;;;10.96;100.00;100701.16;4982041;28;20058;-79
2021/09/20 03:10:06;;;;;;;32.30;30.13;;;;;;;11.17;100.00;100699.25;4985649;28;20119;-81
2021/09/20 03:12:32;;;;;;;35.78;33.45;;;;;;;11.02;100.00;100698.69;4987206;28;20061;-77
2021/09/20 03:14:59;;;;;;;37.70;34.95;;;;;;;10.60;100.00;100698.16;4983769;28;20054;-77
2021/09/20 03:17:26;;;;;;;38.28;35.85;;;;;;;10.92;100.00;100702.59;4983596;28;20050;-79
2021/09/20 03:19:53;;;;;;;40.03;37.63;;;;;;;10.65;100.00;100699.19;4981147;28;20050;-80
2021/09/20 03:22:21;;;;;;;49.05;45.75;;;;;;;11.02;100.00;100701.34;4982614;28;20591;-78
2021/09/20 03:24:48;;;;;;;56.28;52.58;;;;;;;11.07;100.00;100701.53;4982733;28;20053;-79
2021/09/20 03:27:15;;;;;;;45.22;42.00;;;;;;;10.99;100.00;100687.44;4982209;28;20459;-78
2021/09/20 03:29:42;;;;;;;52.70;48.92;;;;;;;11.02;100.00;100680.91;4982485;28;20086;-78
2021/09/20 03:32:08;;;;;;;51.15;47.67;;;;;;;10.13;100.00;100671.59;4981271;28;20069;-77
2021/09/20 03:34:35;;;;;;;49.85;46.55;;;;;;;10.94;100.00;100681.94;4976073;28;20128;-78
2021/09/20 03:37:02;;;;;;;70.80;64.40;;;;;;;11.11;100.00;100668.19;4985925;28;20050;-79
2021/09/20 03:39:30;;;;;;;68.75;62.15;;;;;;;11.08;100.00;100668.63;4982549;28;20054;-77
2021/09/20 03:41:57;;;;;;;60.97;55.85;;;;;;;11.11;100.00;100668.19;4989392;28;20128;-79
2021/09/20 03:44:24;;;;;;;59.55;54.47;;;;;;;11.01;100.00;100681.91;4984274;28;20043;-78
2021/09/20 03:46:51;;;;;;;60.92;55.92;;;;;;;10.93;100.00;100684.81;4983859;28;20121;-77
2021/09/20 03:49:17;;;;;;;61.15;56.42;;;;;;;11.14;100.00;100687.19;4984274;28;20051;-78
2021/09/20 03:51:44;;;;;;;63.75;58.80;;;;;;;11.08;100.00;100696.00;4983070;28;20058;-77
2021/09/20 03:54:11;;;;;;;59.65;54.45;;;;;;;10.81;100.00;100694.44;4983231;28;20061;-78
2021/09/20 03:56:39;;;;;;;58.33;53.25;;;;;;;10.95;100.00;100688.91;4983144;28;20061;-79
2021/09/20 03:59:06;;;;;;;58.13;53.35;;;;;;;11.11;100.00;100698.25;4982270;28;20046;-77
2021/09/20 04:01:33;;;;;;;64.43;58.63;;;;;;;11.03;100.00;100706.44;4980435;28;20058;-77
2021/09/20 04:03:59;;;;;;;61.55;56.13;;;;;;;10.91;100.00;100702.78;4981979;28;20113;-79
2021/09/20 04:06:26;;;;;;;52.80;48.80;;;;;;;10.18;100.00;100703.66;4984805;28;20116;-77
2021/09/20 04:08:58;;;;;;;36.60;33.67;;;;;;;10.63;100.00;100709.19;4978599;28;20061;-77
2021/09/20 04:11:24;;;;;;;34.00;31.50;;;;;;;10.28;100.00;100709.38;4991324;28;20054;-77
2021/09/20 04:13:53;;;;;;;34.22;32.03;;;;;;;10.83;100.00;100710.97;4981658;28;20057;-77
2021/09/20 04:16:20;;;;;;;241.10;144.63;;;;;;;10.78;100.00;100715.09;4982797;28;20058;-78
2021/09/20 04:18:46;;;;;;;52.97;47.55;;;;;;;10.50;100.00;100710.03;4980758;28;20051;-79
2021/09/20 04:21:13;;;;;;;51.13;45.00;;;;;;;10.77;100.00;100710.81;4981423;28;20050;-78
2021/09/20 04:23:40;;;;;;;62.67;43.70;;;;;;;10.99;100.00;100723.84;4982705;28;20102;-79
2021/09/20 04:26:07;;;;;;;32.30;29.48;;;;;;;11.16;100.00;100729.50;4982906;28;20094;-77
2021/09/20 04:28:33;;;;;;;35.85;33.15;;;;;;;11.21;100.00;100727.03;4982648;28;20050;-78
2021/09/20 04:31:01;;;;;;;34.35;31.67;;;;;;;11.43;100.00;100728.38;4980760;28;20108;-79
2021/09/20 04:33:28;;;;;;;35.80;33.15;;;;;;;11.58;100.00;100728.09;4985015;28;20050;-77
2021/09/20 04:35:55;;;;;;;37.35;33.80;;;;;;;11.33;100.00;100738.66;4983889;28;20074;-78
2021/09/20 04:38:22;;;;;;;68.75;51.60;;;;;;;11.31;100.00;100737.22;4982083;28;20561;-78
2021/09/20 04:40:49;;;;;;;62.78;50.38;;;;;;;11.17;100.00;100742.59;4978528;28;20141;-78
2021/09/20 04:43:15;;;;;;;45.10;39.70;;;;;;;11.32;100.00;100745.00;4978129;28;20051;-79
2021/09/20 04:45:43;;;;;;;37.90;33.85;;;;;;;11.26;100.00;100731.75;4983666;28;20051;-79
2021/09/20 04:48:13;;;;;;;35.58;32.65;;;;;;;11.25;100.00;100738.88;4983861;28;20113;-77
2021/09/20 04:50:41;;;;;;;39.72;35.78;;;;;;;11.41;100.00;100749.06;4986330;28;20058;-77
2021/09/20 04:53:08;;;;;;;55.63;49.50;;;;;;;11.76;100.00;100750.53;4980335;28;20051;-78
2021/09/20 04:55:35;;;;;;;88.00;63.78;;;;;;;12.09;100.00;100745.88;4978500;28;20479;-79
2021/09/20 04:58:05;;;;;;;200.60;121.72;;;;;;;12.14;100.00;100747.91;4957703;28;20123;-78
2021/09/20 05:00:32;;;;;;;63.45;53.60;;;;;;;12.27;100.00;100747.78;4982524;28;20146;-78
2021/09/20 05:02:59;;;;;;;61.03;50.97;;;;;;;12.48;100.00;100740.47;4980871;28;20054;-77
2021/09/20 05:05:27;;;;;;;53.95;48.20;;;;;;;12.63;100.00;100734.81;4988551;28;20392;-78
2021/09/20 05:07:54;;;;;;;51.38;45.85;;;;;;;12.81;100.00;100735.66;4983038;28;20116;-79
2021/09/20 05:10:21;;;;;;;46.28;41.47;;;;;;;12.92;100.00;100733.28;4984220;28;20491;-77
2021/09/20 05:12:48;;;;;;;48.67;43.80;;;;;;;12.99;100.00;100729.53;4988598;28;20468;-78
2021/09/20 05:15:16;;;;;;;42.92;39.03;;;;;;;18.92;100.00;100712.44;4980082;28;20046;-80
2021/09/20 05:17:43;;;;;;;62.08;42.55;;;;;;;20.99;100.00;100701.34;4982831;28;20065;-81
2021/09/20 05:20:12;;;;;;;68.35;40.90;;;;;;;20.74;94.79;100706.81;4986361;28;20054;-80
2021/09/20 05:22:41;;;;;;;36.50;33.33;;;;;;;15.33;100.00;100717.75;4988479;28;20415;-77
2021/09/20 05:25:10;;;;;;;37.47;35.03;;;;;;;14.06;100.00;100722.88;4979846;28;20057;-76
2021/09/20 05:27:37;;;;;;;36.58;33.97;;;;;;;13.92;100.00;100719.59;4981758;28;20141;-76
2021/09/20 05:30:06;;;;;;;36.17;33.50;;;;;;;13.92;100.00;100730.28;4985450;28;20047;-77
2021/09/20 05:32:33;;;;;;;32.97;30.65;;;;;;;14.03;100.00;100729.47;4981340;28;20050;-76
2021/09/20 05:35:00;;;;;;;32.25;30.25;;;;;;;14.26;100.00;100726.06;4988033;28;20483;-76
2021/09/20 05:37:27;;;;;;;33.33;30.77;;;;;;;14.44;100.00;100720.59;4979573;28;20108;-76
2021/09/20 05:39:55;;;;;;;31.90;29.52;;;;;;;14.34;100.00;100719.53;4983623;28;20193;-77
2021/09/20 05:42:22;;;;;;;29.52;27.52;;;;;;;14.56;100.00;100722.50;4986355;28;20482;-78
2021/09/20 05:44:48;;;;;;;33.15;30.65;;;;;;;14.56;100.00;100723.31;4985778;28;20478;-76
2021/09/20 05:47:15;;;;;;;31.85;29.65;;;;;;;14.87;100.00;100722.16;4994970;28;20046;-76
2021/09/20 05:49:42;;;;;;;30.23;28.13;;;;;;;15.04;100.00;100724.94;4983404;28;20491;-77
2021/09/20 05:52:09;;;;;;;31.55;29.05;;;;;;;15.48;100.00;100729.81;4985727;28;20428;-78
2021/09/20 05:54:36;;;;;;;31.63;28.73;;;;;;;15.53;100.00;100730.72;4987005;28;20066;-78
2021/09/20 05:57:05;;;;;;;30.25;27.75;;;;;;;15.38;100.00;100733.09;4984881;28;20065;-78
2021/09/20 05:59:31;;;;;;;31.77;28.95;;;;;;;15.78;100.00;100737.66;4986565;28;20058;-79
2021/09/20 06:01:58;;;;;;;30.40;28.10;;;;;;;15.90;100.00;100745.63;4985374;28;20124;-76
2021/09/20 06:04:25;;;;;;;32.78;29.85;;;;;;;16.09;100.00;100743.53;4982294;28;20042;-76
2021/09/20 06:06:53;;;;;;;30.65;28.27;;;;;;;16.03;100.00;100748.81;4957795;28;20483;-79
2021/09/20 06:09:20;;;;;;;31.05;28.55;;;;;;;16.57;100.00;100743.00;4955790;28;20050;-78
2021/09/20 06:11:47;;;;;;;30.00;27.45;;;;;;;16.56;100.00;100743.25;4959629;28;20412;-78
2021/09/20 06:14:15;;;;;;;34.30;30.65;;;;;;;16.91;100.00;100743.81;4965453;28;20105;-78
2021/09/20 06:16:42;;;;;;;35.45;31.75;;;;;;;16.99;100.00;100747.94;4965824;28;20444;-79
2021/09/20 06:19:09;;;;;;;47.33;40.45;;;;;;;17.13;100.00;100751.88;4968754;28;20138;-77
2021/09/20 06:21:35;;;;;;;52.50;40.47;;;;;;;17.22;100.00;100743.41;4971437;28;20070;-77
2021/09/20 06:24:02;;;;;;;59.38;42.25;;;;;;;17.20;100.00;100724.84;4963923;28;20062;-78
2021/09/20 06:26:41;;;;;;;63.22;43.38;;;;;;;17.15;100.00;100730.16;4962439;28;20488;-78
2021/09/20 06:29:10;;;;;;;59.70;40.97;;;;;;;17.62;100.00;100735.00;4968122;28;20050;-78
2021/09/20 06:31:38;;;;;;;63.95;44.67;;;;;;;17.69;100.00;100722.19;4969695;28;20512;-78
2021/09/20 06:34:05;;;;;;;58.38;42.08;;;;;;;17.88;100.00;100722.66;4975688;28;20050;-78
2021/09/20 06:36:32;;;;;;;62.22;44.03;;;;;;;18.27;100.00;100733.22;4971630;28;20051;-78
2021/09/20 06:38:59;;;;;;;69.97;47.30;;;;;;;17.69;100.00;100735.63;4972467;28;20059;-77
2021/09/20 06:41:26;;;;;;;60.97;47.28;;;;;;;18.21;100.00;100732.38;4970189;28;20463;-79
2021/09/20 06:43:53;;;;;;;50.17;40.97;;;;;;;18.50;100.00;100719.44;4971403;28;20423;-77
2021/09/20 06:46:20;;;;;;;49.40;41.05;;;;;;;18.73;100.00;100718.28;4970586;28;20042;-80
2021/09/20 06:48:48;;;;;;;42.05;37.17;;;;;;;18.67;100.00;100721.97;4971017;28;20055;-79
2021/09/20 06:51:15;;;;;;;39.50;35.15;;;;;;;18.90;100.00;100709.19;4962087;28;20472;-78
2021/09/20 06:53:42;;;;;;;37.00;33.30;;;;;;;19.46;100.00;100706.75;4965247;28;20415;-77
2021/09/20 06:56:09;;;;;;;36.85;33.03;;;;;;;19.55;100.00;100709.75;4965665;28;20081;-77
2021/09/20 06:58:36;;;;;;;38.03;34.53;;;;;;;19.83;100.00;100701.19;4964332;28;20099;-77
2021/09/20 07:01:02;;;;;;;36.15;32.50;;;;;;;18.99;100.00;100707.63;4972694;28;20137;-78
2021/09/20 07:03:29;;;;;;;36.72;33.25;;;;;;;20.08;100.00;100713.06;4990615;28;20057;-76
2021/09/20 07:05:57;;;;;;;35.72;32.17;;;;;;;20.53;95.13;100709.56;4988437;28;20054;-79
2021/09/20 07:08:24;;;;;;;36.17;32.53;;;;;;;20.59;86.75;100711.16;4988002;28;20054;-78
2021/09/20 07:10:51;;;;;;;34.65;31.45;;;;;;;21.27;81.39;100701.75;4994561;28;20054;-78
2021/09/20 07:13:18;;;;;;;39.20;35.60;;;;;;;21.34;73.76;100704.97;4988720;28;20042;-78
2021/09/20 07:15:45;;;;;;;35.90;32.90;;;;;;;21.04;72.46;100709.41;4992922;28;20046;-77
2021/09/20 07:18:11;;;;;;;32.50;29.90;;;;;;;21.41;70.47;100715.50;4985304;28;20062;-78
2021/09/20 07:20:38;;;;;;;33.85;31.02;;;;;;;20.99;72.17;100720.22;4989592;28;20077;-77
2021/09/20 07:23:06;;;;;;;34.63;31.55;;;;;;;21.65;72.54;100713.75;4987098;28;20046;-79
2021/09/20 07:25:33;;;;;;;36.90;33.63;;;;;;;21.58;71.09;100713.25;4984450;28;20050;-78
2021/09/20 07:28:00;;;;;;;35.28;32.28;;;;;;;21.20;69.25;100704.75;4989446;28;20046;-77
2021/09/20 07:30:27;;;;;;;38.92;35.53;;;;;;;21.21;68.86;100695.59;4997600;28;20057;-77
2021/09/20 07:32:54;;;;;;;36.08;32.60;;;;;;;21.00;71.51;100705.66;4995735;28;20120;-78
2021/09/20 07:35:21;;;;;;;41.22;37.83;;;;;;;21.22;72.75;100708.00;4990415;28;20061;-79
2021/09/20 07:37:51;;;;;;;34.55;31.60;;;;;;;21.91;70.08;100703.56;4990645;28;20478;-79
2021/09/20 07:40:21;;;;;;;34.78;32.10;;;;;;;22.42;69.70;100705.03;4999308;28;20509;-77
2021/09/20 07:42:48;;;;;;;36.83;33.67;;;;;;;22.31;66.90;100708.97;4989005;28;20408;-78
2021/09/20 07:45:15;;;;;;;37.20;34.30;;;;;;;22.36;64.04;100706.19;4989794;28;20050;-82
2021/09/20 07:47:42;;;;;;;36.00;33.17;;;;;;;22.47;68.58;100706.91;4992835;28;20061;-78
2021/09/20 07:50:10;;;;;;;39.13;35.75;;;;;;;22.54;60.92;100708.22;4990899;28;20050;-79
2021/09/20 07:52:37;;;;;;;36.13;33.33;;;;;;;22.53;58.81;100703.88;4988251;28;20050;-77
2021/09/20 07:55:05;;;;;;;35.70;32.90;;;;;;;22.61;59.34;100705.97;4991555;28;20124;-77
2021/09/20 07:57:33;;;;;;;36.90;33.83;;;;;;;22.76;58.90;100690.66;4992848;28;20058;-79
2021/09/20 08:00:00;;;;;;;40.30;36.67;;;;;;;22.83;60.19;100686.50;4994253;28;20050;-78
2021/09/20 08:02:27;;;;;;;37.88;34.50;;;;;;;23.29;59.16;100679.72;4982484;28;20404;-79
2021/09/20 08:04:54;;;;;;;37.67;34.70;;;;;;;23.05;60.30;100677.84;4992127;28;20459;-78
2021/09/20 08:07:21;;;;;;;39.78;36.78;;;;;;;23.44;60.08;100678.72;4983650;28;20058;-79
2021/09/20 08:09:48;;;;;;;41.28;37.90;;;;;;;23.83;57.05;100675.69;4991105;28;20051;-78
2021/09/20 08:12:15;;;;;;;34.80;32.00;;;;;;;24.07;56.50;100678.28;4989219;28;20046;-77
2021/09/20 08:14:43;;;;;;;41.03;37.35;;;;;;;24.20;54.75;100676.72;4990467;28;20061;-78
2021/09/20 08:17:10;;;;;;;42.15;38.95;;;;;;;24.23;52.71;100676.13;4991837;28;20050;-77
2021/09/20 08:19:38;;;;;;;43.67;40.33;;;;;;;24.60;51.55;100677.09;4988968;28;20124;-79
2021/09/20 08:22:06;;;;;;;40.10;37.00;;;;;;;24.31;49.54;100677.34;4991271;28;20475;-78
2021/09/20 08:24:33;;;;;;;37.97;34.78;;;;;;;24.65;52.15;100677.81;4990760;28;20589;-78
2021/09/20 08:27:01;;;;;;;39.22;35.95;;;;;;;24.67;50.26;100680.25;4989077;28;20491;-77
2021/09/20 08:29:28;;;;;;;37.95;35.20;;;;;;;25.20;49.11;100670.75;4988481;28;20049;-79
2021/09/20 08:31:56;;;;;;;40.33;37.50;;;;;;;25.36;46.69;100680.22;4991918;28;20054;-78
2021/09/20 08:34:23;;;;;;;45.75;41.92;;;;;;;25.58;48.36;100671.25;4975410;28;20125;-79
2021/09/20 08:36:50;;;;;;;36.42;33.53;;;;;;;25.76;45.99;100659.41;4991084;28;20407;-79
2021/09/20 08:39:17;;;;;;;37.35;34.78;;;;;;;25.91;45.84;100663.69;4985349;28;20087;-79
2021/09/20 08:41:44;;;;;;;30.30;27.88;;;;;;;25.50;41.67;100658.41;4990508;28;20065;-78
2021/09/20 08:44:11;;;;;;;28.40;26.35;;;;;;;26.18;42.13;100660.03;4984362;28;20046;-79
2021/09/20 08:46:40;;;;;;;32.10;29.63;;;;;;;26.70;43.21;100656.75;4993088;28;20057;-78
2021/09/20 08:49:09;;;;;;;32.03;29.83;;;;;;;26.49;40.70;100654.59;4983054;28;20055;-77
2021/09/20 08:51:36;;;;;;;35.65;33.50;;;;;;;26.76;38.81;100650.03;4993134;28;20065;-78
2021/09/20 08:54:03;;;;;;;35.28;33.08;;;;;;;26.98;40.53;100651.03;4989047;28;20133;-79
2021/09/20 08:56:30;;;;;;;34.15;31.70;;;;;;;27.62;41.48;100649.31;4990211;28;20050;-79
2021/09/20 08:58:57;;;;;;;35.08;32.65;;;;;;;27.16;39.06;100653.50;4988075;28;20050;-78
2021/09/20 09:01:24;;;;;;;31.73;29.23;;;;;;;27.67;37.96;100651.09;4988215;28;20125;-78
2021/09/20 09:03:51;;;;;;;32.63;29.60;;;;;;;26.77;44.50;100646.19;4993358;28;20046;-78
2021/09/20 09:06:31;;;;;;;32.22;29.83;;;;;;;27.75;39.75;100636.66;4991874;28;20108;-79
2021/09/20 09:08:57;;;;;;;32.75;30.17;;;;;;;27.10;42.37;100624.75;4985370;28;20058;-77
2021/09/20 09:11:28;;;;;;;34.03;31.63;;;;;;;27.16;42.11;100617.25;4977894;28;20042;-78
2021/09/20 09:13:59;;;;;;;31.20;28.73;;;;;;;27.75;38.35;100611.31;4994133;28;20451;-78
2021/09/20 09:16:28;;;;;;;33.83;31.33;;;;;;;29.47;35.68;100602.53;4992653;28;20058;-77
2021/09/20 09:19:05;;;;;;;32.25;29.77;;;;;;;27.59;41.45;100609.06;4993154;28;20050;-77
2021/09/20 09:21:35;;;;;;;32.03;29.50;;;;;;;28.12;39.50;100600.78;4985610;28;20051;-78
2021/09/20 09:24:07;;;;;;;29.90;27.50;;;;;;;27.75;38.19;100606.66;4986088;28;20053;-79
2021/09/20 09:26:34;;;;;;;28.58;26.38;;;;;;;28.39;35.88;100594.09;4992179;28;20042;-79
2021/09/20 09:29:12;;;;;;;27.27;25.10;;;;;;;27.81;42.34;100605.38;4998318;28;20057;-78
2021/09/20 09:31:40;;;;;;;28.55;26.45;;;;;;;27.64;38.20;100603.44;4993215;28;20129;-77
2021/09/20 09:34:20;;;;;;;29.58;27.30;;;;;;;27.48;40.44;100605.09;4997603;28;20050;-79
2021/09/20 09:36:48;;;;;;;30.13;28.15;;;;;;;29.06;37.83;100603.38;4992350;28;20549;-77
2021/09/20 09:39:27;;;;;;;27.63;25.38;;;;;;;30.12;36.21;100598.16;4984357;28;20062;-80
2021/09/20 09:41:54;;;;;;;27.42;25.58;;;;;;;28.47;36.76;100604.19;4993695;28;20051;-77
2021/09/20 09:44:27;;;;;;;31.30;29.10;;;;;;;28.20;38.20;100597.22;4984882;28;20046;-77
2021/09/20 09:46:54;;;;;;;30.30;27.90;;;;;;;28.85;35.98;100590.47;4988479;28;20050;-78
2021/09/20 09:49:24;;;;;;;28.38;26.38;;;;;;;30.10;34.13;100585.94;4992937;28;20462;-79
2021/09/20 09:52:01;;;;;;;32.17;29.98;;;;;;;29.97;34.87;100585.13;4988797;28;20480;-79
2021/09/20 09:54:31;;;;;;;29.73;27.25;;;;;;;27.99;40.85;100578.03;4992145;28;20125;-79
2021/09/20 09:57:16;;;;;;;31.33;28.15;;;;;;;28.41;41.46;100572.72;4990310;28;20042;-79
2021/09/20 09:59:44;;;;;;;28.70;26.40;;;;;;;26.86;44.26;100568.00;4991324;28;20085;-79
2021/09/20 10:02:25;;;;;;;35.47;27.50;;;;;;;28.72;41.77;100556.81;4991914;28;20054;-79
2021/09/20 10:04:55;;;;;;;27.60;25.15;;;;;;;28.87;40.37;100547.22;4992558;28;20046;-77
2021/09/20 10:07:25;;;;;;;29.45;26.42;;;;;;;29.76;39.55;100548.84;4993881;28;20121;-78
2021/09/20 10:09:53;;;;;;;30.50;27.98;;;;;;;31.02;37.14;100546.97;4993107;28;20050;-79
2021/09/20 10:12:23;;;;;;;32.10;29.45;;;;;;;27.77;43.05;100549.00;4985346;28;20090;-78
2021/09/20 10:14:51;;;;;;;30.90;28.17;;;;;;;28.85;40.34;100546.75;4984752;28;20435;-79
2021/09/20 10:17:19;;;;;;;29.42;27.05;;;;;;;29.75;38.61;100533.56;4993449;28;20050;-78
2021/09/20 10:19:47;;;;;;;32.15;29.75;;;;;;;30.02;38.34;100532.91;4991681;28;20099;-77
2021/09/20 10:22:16;;;;;;;33.92;31.25;;;;;;;30.08;37.13;100534.28;4994293;28;20125;-77
2021/09/20 10:24:46;;;;;;;35.08;32.60;;;;;;;29.99;37.85;100527.31;4993165;28;20046;-79
2021/09/20 10:27:16;;;;;;;33.95;31.33;;;;;;;31.12;37.54;100511.97;4990397;28;20062;-79
2021/09/20 10:29:49;;;;;;;32.60;30.23;;;;;;;30.66;37.17;100508.69;4986693;28;20046;-80
2021/09/20 10:32:17;;;;;;;34.13;31.50;;;;;;;30.72;37.70;100510.03;4984130;28;20133;-80
2021/09/20 10:34:44;;;;;;;33.05;30.83;;;;;;;30.21;38.02;100509.66;4985606;28;20054;-79
2021/09/20 10:37:13;;;;;;;36.72;34.22;;;;;;;30.22;38.29;100505.78;4991960;28;20049;-78
2021/09/20 10:39:53;;;;;;;33.95;31.92;;;;;;;29.86;38.87;100491.69;4994857;28;20057;-78
2021/09/20 10:42:52;;;;;;;31.35;28.80;;;;;;;29.57;38.31;100489.94;4992933;28;20498;-78
2021/09/20 10:45:53;;;;;;;30.38;28.20;;;;;;;29.38;38.93;100495.97;4992407;28;20046;-78
2021/09/20 10:48:26;;;;;;;31.40;29.02;;;;;;;28.82;39.54;100497.41;4991953;28;20066;-76
2021/09/20 10:50:55;;;;;;;28.92;26.70;;;;;;;29.97;37.81;100500.28;4992224;28;20046;-77
2021/09/20 10:53:28;;;;;;;28.73;26.25;;;;;;;29.99;37.61;100495.25;4993074;28;20447;-79
2021/09/20 10:56:20;;;;;;;29.95;27.65;;;;;;;29.42;38.25;100479.66;4984840;28;20050;-78
2021/09/20 10:59:17;;;;;;;30.20;27.85;;;;;;;31.74;34.91;100476.72;4985489;28;20432;-77
2021/09/20 11:01:46;;;;;;;29.52;27.13;;;;;;;30.74;36.32;100464.69;4987519;28;20046;-78
2021/09/20 11:04:17;;;;;;;29.92;27.40;;;;;;;29.16;38.15;100471.72;4995342;28;20056;-78
2021/09/20 11:07:02;;;;;;;31.40;28.75;;;;;;;31.46;35.81;100452.91;4993609;28;20133;-77
2021/09/20 11:09:40;;;;;;;33.88;31.17;;;;;;;31.09;35.88;100442.16;4989075;28;20493;-78